sensor_id;sensor_type;location;lat;lon;timestamp;pressure;altitude;pressure_sealevel;temperature;humidity
40946;BME280;55635;50.264;11.918;2023-04-29T00:01:59;95128.69;;;11.76;100.00
40946;BME280;55635;50.264;11.918;2023-04-29T00:04:43;95121.13;;;11.86;100.00
40946;BME280;55635;50.264;11.918;2023-04-29T00:07:26;95131.53;;;12.07;100.00
40946;BME280;55635;50.264;11.918;2023-04-29T00:10:08;95122.69;;;12.33;100.00
40946;BME280;55635;50.264;11.918;2023-04-29T00:12:50;95122.84;;;12.57;100.00
40946;BME280;55635;50.264;11.918;2023-04-29T00:15:31;95117.25;;;12.72;100.00
40946;BME280;55635;50.264;11.918;2023-04-29T00:18:12;95120.50;;;12.81;100.00
40946;BME280;55635;50.264;11.918;2023-04-29T00:20:54;95116.75;;;12.95;100.00
40946;BME280;55635;50.264;11.918;2023-04-29T00:23:35;95113.63;;;13.04;100.00
40946;BME280;55635;50.264;11.918;2023-04-29T00:26:16;95112.22;;;13.08;100.00
40946;BME280;55635;50.264;11.918;2023-04-29T00:29:00;95114.34;;;12.87;100.00
40946;BME280;55635;50.264;11.918;2023-04-29T00:31:41;95111.25;;;12.90;100.00
40946;BME280;55635;50.264;11.918;2023-04-29T00:34:23;95105.69;;;12.98;100.00
40946;BME280;55635;50.264;11.918;2023-04-29T00:37:04;95110.97;;;13.04;100.00
40946;BME280;55635;50.264;11.918;2023-04-29T00:39:45;95109.72;;;13.14;100.00
40946;BME280;55635;50.264;11.918;2023-04-29T00:42:27;95119.97;;;13.17;100.00
40946;BME280;55635;50.264;11.918;2023-04-29T00:45:10;95121.66;;;12.98;100.00
40946;BME280;55635;50.264;11.918;2023-04-29T00:47:51;95115.06;;;13.14;100.00
40946;BME280;55635;50.264;11.918;2023-04-29T00:50:32;95105.84;;;13.03;100.00
40946;BME280;55635;50.264;11.918;2023-04-29T00:53:13;95113.34;;;13.26;100.00
40946;BME280;55635;50.264;11.918;2023-04-29T00:55:55;95114.50;;;13.36;100.00
40946;BME280;55635;50.264;11.918;2023-04-29T00:58:36;95107.66;;;13.53;100.00
40946;BME280;55635;50.264;11.918;2023-04-29T01:01:19;95098.63;;;13.23;100.00
40946;BME280;55635;50.264;11.918;2023-04-29T01:04:04;95128.44;;;13.38;100.00
40946;BME280;55635;50.264;11.918;2023-04-29T01:10:52;95138.44;;;13.43;100.00
40946;BME280;55635;50.264;11.918;2023-04-29T01:13:58;95128.00;;;13.41;100.00
40946;BME280;55635;50.264;11.918;2023-04-29T01:16:59;95134.81;;;13.62;100.00
40946;BME280;55635;50.264;11.918;2023-04-29T01:19:48;95141.13;;;13.68;100.00
40946;BME280;55635;50.264;11.918;2023-04-29T01:22:31;95147.88;;;13.70;100.00
40946;BME280;55635;50.264;11.918;2023-04-29T01:25:12;95130.22;;;13.76;100.00
40946;BME280;55635;50.264;11.918;2023-04-29T01:31:37;95129.16;;;13.52;100.00
40946;BME280;55635;50.264;11.918;2023-04-29T01:35:32;95143.72;;;13.49;100.00
40946;BME280;55635;50.264;11.918;2023-04-29T01:42:38;95134.88;;;13.55;100.00
40946;BME280;55635;50.264;11.918;2023-04-29T01:45:24;95127.75;;;13.49;100.00
40946;BME280;55635;50.264;11.918;2023-04-29T01:48:07;95129.88;;;13.66;100.00
40946;BME280;55635;50.264;11.918;2023-04-29T01:50:49;95107.47;;;13.48;100.00
40946;BME280;55635;50.264;11.918;2023-04-29T01:53:31;95117.81;;;13.63;100.00
40946;BME280;55635;50.264;11.918;2023-04-29T01:56:12;95119.94;;;13.79;100.00
40946;BME280;55635;50.264;11.918;2023-04-29T01:59:31;95116.53;;;13.97;100.00
40946;BME280;55635;50.264;11.918;2023-04-29T02:02:38;95113.09;;;13.90;100.00
40946;BME280;55635;50.264;11.918;2023-04-29T02:05:43;95114.44;;;13.99;100.00
40946;BME280;55635;50.264;11.918;2023-04-29T02:08:24;95106.59;;;14.04;100.00
40946;BME280;55635;50.264;11.918;2023-04-29T02:11:06;95088.28;;;13.64;100.00
40946;BME280;55635;50.264;11.918;2023-04-29T02:13:50;95109.69;;;13.20;100.00
40946;BME280;55635;50.264;11.918;2023-04-29T02:16:35;95113.50;;;13.31;100.00
40946;BME280;55635;50.264;11.918;2023-04-29T02:19:21;95107.81;;;13.58;99.91
40946;BME280;55635;50.264;11.918;2023-04-29T02:22:05;95095.53;;;13.57;98.42
40946;BME280;55635;50.264;11.918;2023-04-29T02:24:46;95117.63;;;13.58;98.40
40946;BME280;55635;50.264;11.918;2023-04-29T02:27:27;95123.34;;;13.61;98.50
40946;BME280;55635;50.264;11.918;2023-04-29T02:30:09;95130.41;;;13.49;99.73
40946;BME280;55635;50.264;11.918;2023-04-29T02:32:51;95131.72;;;13.65;99.39
40946;BME280;55635;50.264;11.918;2023-04-29T02:35:32;95126.22;;;13.67;99.71
40946;BME280;55635;50.264;11.918;2023-04-29T02:38:17;95132.13;;;13.69;99.89
40946;BME280;55635;50.264;11.918;2023-04-29T02:40:58;95138.03;;;13.71;98.77
40946;BME280;55635;50.264;11.918;2023-04-29T02:43:41;95129.47;;;13.69;98.83
40946;BME280;55635;50.264;11.918;2023-04-29T02:46:22;95139.84;;;13.77;98.16
40946;BME280;55635;50.264;11.918;2023-04-29T02:49:03;95135.13;;;13.79;97.54
40946;BME280;55635;50.264;11.918;2023-04-29T02:51:45;95138.81;;;13.78;97.88
40946;BME280;55635;50.264;11.918;2023-04-29T02:54:26;95131.84;;;13.77;96.85
40946;BME280;55635;50.264;11.918;2023-04-29T02:57:07;95149.25;;;13.79;97.39
40946;BME280;55635;50.264;11.918;2023-04-29T02:59:48;95142.06;;;13.80;96.23
40946;BME280;55635;50.264;11.918;2023-04-29T03:02:29;95145.34;;;13.82;95.93
40946;BME280;55635;50.264;11.918;2023-04-29T03:05:37;95144.94;;;13.85;95.90
40946;BME280;55635;50.264;11.918;2023-04-29T03:08:18;95148.19;;;13.87;95.53
40946;BME280;55635;50.264;11.918;2023-04-29T03:11:01;95144.63;;;13.93;95.28
40946;BME280;55635;50.264;11.918;2023-04-29T03:13:42;95150.34;;;13.96;94.90
40946;BME280;55635;50.264;11.918;2023-04-29T03:16:23;95143.38;;;13.95;94.45
40946;BME280;55635;50.264;11.918;2023-04-29T03:19:05;95152.91;;;13.85;95.05
40946;BME280;55635;50.264;11.918;2023-04-29T03:21:46;95149.97;;;13.93;94.85
40946;BME280;55635;50.264;11.918;2023-04-29T03:24:27;95147.75;;;13.90;94.49
40946;BME280;55635;50.264;11.918;2023-04-29T03:27:08;95138.16;;;13.82;94.15
40946;BME280;55635;50.264;11.918;2023-04-29T03:29:50;95146.75;;;13.84;93.88
40946;BME280;55635;50.264;11.918;2023-04-29T03:32:33;95138.38;;;13.81;93.49
40946;BME280;55635;50.264;11.918;2023-04-29T03:35:14;95139.13;;;13.63;93.22
40946;BME280;55635;50.264;11.918;2023-04-29T03:38:16;95139.50;;;13.35;93.29
40946;BME280;55635;50.264;11.918;2023-04-29T03:40:58;95144.22;;;13.33;93.81
40946;BME280;55635;50.264;11.918;2023-04-29T03:43:38;95138.16;;;13.20;94.44
40946;BME280;55635;50.264;11.918;2023-04-29T03:46:20;95143.09;;;13.16;94.22
40946;BME280;55635;50.264;11.918;2023-04-29T03:49:01;95146.19;;;13.13;94.14
40946;BME280;55635;50.264;11.918;2023-04-29T03:51:42;95144.09;;;13.15;94.86
40946;BME280;55635;50.264;11.918;2023-04-29T03:54:29;95140.00;;;13.19;93.59
40946;BME280;55635;50.264;11.918;2023-04-29T03:57:11;95147.78;;;13.21;93.00
40946;BME280;55635;50.264;11.918;2023-04-29T03:59:53;95151.88;;;13.23;93.20
40946;BME280;55635;50.264;11.918;2023-04-29T04:02:35;95136.94;;;13.16;92.66
40946;BME280;55635;50.264;11.918;2023-04-29T04:05:16;95149.63;;;13.20;92.71
40946;BME280;55635;50.264;11.918;2023-04-29T04:08:04;95148.66;;;13.08;94.84
40946;BME280;55635;50.264;11.918;2023-04-29T04:10:48;95157.25;;;13.10;94.08
40946;BME280;55635;50.264;11.918;2023-04-29T04:13:41;95161.75;;;13.09;94.60
40946;BME280;55635;50.264;11.918;2023-04-29T04:16:26;95156.41;;;13.03;95.31
40946;BME280;55635;50.264;11.918;2023-04-29T04:19:07;95151.72;;;13.05;95.58
40946;BME280;55635;50.264;11.918;2023-04-29T04:21:51;95160.50;;;13.12;95.35
40946;BME280;55635;50.264;11.918;2023-04-29T04:24:32;95170.09;;;13.20;95.09
40946;BME280;55635;50.264;11.918;2023-04-29T04:27:14;95164.94;;;13.31;94.98
40946;BME280;55635;50.264;11.918;2023-04-29T04:29:59;95171.09;;;13.25;95.21
40946;BME280;55635;50.264;11.918;2023-04-29T04:32:45;95165.81;;;13.12;95.12
40946;BME280;55635;50.264;11.918;2023-04-29T04:35:26;95169.94;;;13.15;95.72
40946;BME280;55635;50.264;11.918;2023-04-29T04:38:07;95178.72;;;13.15;95.39
40946;BME280;55635;50.264;11.918;2023-04-29T04:40:48;95177.72;;;13.09;95.29
40946;BME280;55635;50.264;11.918;2023-04-29T04:43:44;95182.84;;;13.11;95.18
40946;BME280;55635;50.264;11.918;2023-04-29T04:46:36;95190.81;;;13.18;94.25
40946;BME280;55635;50.264;11.918;2023-04-29T04:49:27;95184.66;;;13.17;94.66
40946;BME280;55635;50.264;11.918;2023-04-29T04:52:09;95192.63;;;13.24;94.65
40946;BME280;55635;50.264;11.918;2023-04-29T04:54:51;95190.72;;;13.31;94.08
40946;BME280;55635;50.264;11.918;2023-04-29T04:57:37;95183.72;;;13.36;93.65
40946;BME280;55635;50.264;11.918;2023-04-29T05:00:19;95196.59;;;13.46;93.68
40946;BME280;55635;50.264;11.918;2023-04-29T05:03:00;95202.94;;;13.51;93.69
40946;BME280;55635;50.264;11.918;2023-04-29T05:05:41;95205.69;;;13.70;93.47
40946;BME280;55635;50.264;11.918;2023-04-29T05:08:22;95197.47;;;13.71;92.24
40946;BME280;55635;50.264;11.918;2023-04-29T05:11:07;95201.91;;;13.84;92.14
40946;BME280;55635;50.264;11.918;2023-04-29T05:13:55;95191.75;;;13.99;91.72
40946;BME280;55635;50.264;11.918;2023-04-29T05:16:36;95198.25;;;14.09;91.81
40946;BME280;55635;50.264;11.918;2023-04-29T05:19:18;95197.91;;;14.24;91.55
40946;BME280;55635;50.264;11.918;2023-04-29T05:22:04;95193.06;;;14.14;90.03
40946;BME280;55635;50.264;11.918;2023-04-29T05:24:45;95191.63;;;14.18;90.87
40946;BME280;55635;50.264;11.918;2023-04-29T05:27:30;95197.47;;;14.27;90.53
40946;BME280;55635;50.264;11.918;2023-04-29T05:30:11;95192.16;;;14.27;90.38
40946;BME280;55635;50.264;11.918;2023-04-29T05:32:56;95201.31;;;14.31;91.07
40946;BME280;55635;50.264;11.918;2023-04-29T05:35:39;95202.13;;;14.38;91.46
40946;BME280;55635;50.264;11.918;2023-04-29T05:38:20;95201.97;;;14.33;91.11
40946;BME280;55635;50.264;11.918;2023-04-29T05:41:08;95200.59;;;14.24;91.32
40946;BME280;55635;50.264;11.918;2023-04-29T05:43:51;95200.47;;;14.37;91.10
40946;BME280;55635;50.264;11.918;2023-04-29T05:46:32;95195.78;;;14.39;91.78
40946;BME280;55635;50.264;11.918;2023-04-29T05:49:13;95200.59;;;14.49;90.64
40946;BME280;55635;50.264;11.918;2023-04-29T05:51:55;95200.31;;;14.57;90.18
40946;BME280;55635;50.264;11.918;2023-04-29T05:54:42;95192.31;;;14.57;90.17
40946;BME280;55635;50.264;11.918;2023-04-29T05:57:48;95203.84;;;14.76;88.86
40946;BME280;55635;50.264;11.918;2023-04-29T06:00:29;95205.75;;;14.68;89.02
40946;BME280;55635;50.264;11.918;2023-04-29T06:03:17;95206.91;;;14.54;88.46
40946;BME280;55635;50.264;11.918;2023-04-29T06:05:59;95214.50;;;14.76;88.54
40946;BME280;55635;50.264;11.918;2023-04-29T06:09:00;95207.41;;;14.88;87.80
40946;BME280;55635;50.264;11.918;2023-04-29T06:11:43;95205.09;;;14.91;87.91
40946;BME280;55635;50.264;11.918;2023-04-29T06:14:27;95212.00;;;14.99;88.83
40946;BME280;55635;50.264;11.918;2023-04-29T06:17:08;95215.28;;;15.01;88.79
40946;BME280;55635;50.264;11.918;2023-04-29T06:19:49;95221.63;;;15.00;86.65
40946;BME280;55635;50.264;11.918;2023-04-29T06:22:33;95216.44;;;15.05;87.74
40946;BME280;55635;50.264;11.918;2023-04-29T06:25:14;95226.84;;;15.31;86.89
40946;BME280;55635;50.264;11.918;2023-04-29T06:28:20;95233.25;;;15.42;86.05
40946;BME280;55635;50.264;11.918;2023-04-29T06:31:01;95244.41;;;15.39;86.48
40946;BME280;55635;50.264;11.918;2023-04-29T06:33:42;95241.53;;;15.40;85.63
40946;BME280;55635;50.264;11.918;2023-04-29T06:36:23;95235.94;;;15.23;86.59
40946;BME280;55635;50.264;11.918;2023-04-29T06:39:33;95239.13;;;15.32;86.22
40946;BME280;55635;50.264;11.918;2023-04-29T06:42:49;95236.00;;;15.35;86.05
40946;BME280;55635;50.264;11.918;2023-04-29T06:45:55;95246.19;;;15.45;86.49
40946;BME280;55635;50.264;11.918;2023-04-29T06:48:43;95255.41;;;15.49;86.23
40946;BME280;55635;50.264;11.918;2023-04-29T06:51:24;95238.72;;;15.53;86.02
40946;BME280;55635;50.264;11.918;2023-04-29T06:54:05;95254.19;;;15.63;86.54
40946;BME280;55635;50.264;11.918;2023-04-29T06:56:46;95252.34;;;15.93;86.94
40946;BME280;55635;50.264;11.918;2023-04-29T06:59:31;95261.44;;;15.92;84.73
40946;BME280;55635;50.264;11.918;2023-04-29T07:02:12;95263.78;;;15.70;84.46
40946;BME280;55635;50.264;11.918;2023-04-29T07:04:53;95251.97;;;15.60;84.62
40946;BME280;55635;50.264;11.918;2023-04-29T07:07:37;95258.16;;;15.60;86.00
40946;BME280;55635;50.264;11.918;2023-04-29T07:10:18;95273.28;;;15.66;84.79
40946;BME280;55635;50.264;11.918;2023-04-29T07:12:59;95276.84;;;15.42;84.04
40946;BME280;55635;50.264;11.918;2023-04-29T07:15:40;95275.00;;;15.24;85.11
40946;BME280;55635;50.264;11.918;2023-04-29T07:18:22;95278.47;;;15.25;86.30
40946;BME280;55635;50.264;11.918;2023-04-29T07:21:28;95261.31;;;15.14;84.42
40946;BME280;55635;50.264;11.918;2023-04-29T07:24:10;95273.50;;;15.10;85.45
40946;BME280;55635;50.264;11.918;2023-04-29T07:26:51;95282.19;;;15.42;85.95
40946;BME280;55635;50.264;11.918;2023-04-29T07:29:33;95283.53;;;15.33;84.87
40946;BME280;55635;50.264;11.918;2023-04-29T07:32:15;95286.66;;;15.48;85.75
40946;BME280;55635;50.264;11.918;2023-04-29T07:35:21;95288.06;;;15.69;84.41
40946;BME280;55635;50.264;11.918;2023-04-29T07:38:02;95293.56;;;15.74;83.23
40946;BME280;55635;50.264;11.918;2023-04-29T07:40:48;95291.81;;;16.39;85.10
40946;BME280;55635;50.264;11.918;2023-04-29T07:43:29;95295.41;;;16.63;82.06
40946;BME280;55635;50.264;11.918;2023-04-29T07:46:10;95284.44;;;16.64;79.96
40946;BME280;55635;50.264;11.918;2023-04-29T07:48:51;95295.06;;;16.71;79.38
40946;BME280;55635;50.264;11.918;2023-04-29T07:51:33;95303.59;;;16.38;79.22
40946;BME280;55635;50.264;11.918;2023-04-29T07:54:15;95299.28;;;16.49;80.32
40946;BME280;55635;50.264;11.918;2023-04-29T07:56:59;95307.25;;;16.67;79.16
40946;BME280;55635;50.264;11.918;2023-04-29T07:59:41;95288.38;;;16.50;78.24
40946;BME280;55635;50.264;11.918;2023-04-29T08:02:22;95301.41;;;16.17;78.14
40946;BME280;55635;50.264;11.918;2023-04-29T08:05:04;95316.06;;;15.96;80.28
40946;BME280;55635;50.264;11.918;2023-04-29T08:07:45;95301.31;;;15.94;79.75
40946;BME280;55635;50.264;11.918;2023-04-29T08:10:26;95319.91;;;15.89;79.70
40946;BME280;55635;50.264;11.918;2023-04-29T08:13:07;95313.44;;;15.78;79.40
40946;BME280;55635;50.264;11.918;2023-04-29T08:15:48;95322.50;;;15.77;78.19
40946;BME280;55635;50.264;11.918;2023-04-29T08:18:34;95320.56;;;15.84;78.18
40946;BME280;55635;50.264;11.918;2023-04-29T08:21:16;95328.50;;;15.91;79.37
40946;BME280;55635;50.264;11.918;2023-04-29T08:23:57;95337.03;;;15.99;78.64
40946;BME280;55635;50.264;11.918;2023-04-29T08:26:40;95329.97;;;16.05;79.08
40946;BME280;55635;50.264;11.918;2023-04-29T08:29:22;95347.81;;;16.11;79.01
40946;BME280;55635;50.264;11.918;2023-04-29T08:32:03;95354.06;;;15.87;79.92
40946;BME280;55635;50.264;11.918;2023-04-29T08:34:44;95350.16;;;15.53;80.79
40946;BME280;55635;50.264;11.918;2023-04-29T08:37:25;95357.91;;;15.54;79.73
40946;BME280;55635;50.264;11.918;2023-04-29T08:40:07;95363.72;;;15.51;81.22
40946;BME280;55635;50.264;11.918;2023-04-29T08:42:49;95362.34;;;15.42;80.53
40946;BME280;55635;50.264;11.918;2023-04-29T08:45:32;95366.63;;;15.25;79.64
40946;BME280;55635;50.264;11.918;2023-04-29T08:48:15;95370.75;;;15.21;80.58
40946;BME280;55635;50.264;11.918;2023-04-29T08:50:56;95376.06;;;15.03;80.12
40946;BME280;55635;50.264;11.918;2023-04-29T08:53:42;95382.63;;;15.07;81.18
40946;BME280;55635;50.264;11.918;2023-04-29T08:56:23;95378.59;;;14.66;81.69
40946;BME280;55635;50.264;11.918;2023-04-29T08:59:04;95387.13;;;14.82;84.18
40946;BME280;55635;50.264;11.918;2023-04-29T09:01:49;95392.72;;;14.98;82.95
40946;BME280;55635;50.264;11.918;2023-04-29T09:05:09;95396.97;;;14.81;83.71
40946;BME280;55635;50.264;11.918;2023-04-29T09:07:52;95399.09;;;14.73;83.05
40946;BME280;55635;50.264;11.918;2023-04-29T09:10:36;95385.53;;;14.74;84.76
40946;BME280;55635;50.264;11.918;2023-04-29T09:13:29;95394.81;;;14.65;84.74
40946;BME280;55635;50.264;11.918;2023-04-29T09:16:13;95390.78;;;14.56;84.77
40946;BME280;55635;50.264;11.918;2023-04-29T09:18:54;95402.56;;;14.42;84.65
40946;BME280;55635;50.264;11.918;2023-04-29T09:21:36;95405.16;;;14.55;85.56
40946;BME280;55635;50.264;11.918;2023-04-29T09:24:27;95407.03;;;14.86;84.55
40946;BME280;55635;50.264;11.918;2023-04-29T09:27:09;95412.28;;;14.92;85.15
40946;BME280;55635;50.264;11.918;2023-04-29T09:30:07;95418.78;;;15.03;83.52
40946;BME280;55635;50.264;11.918;2023-04-29T09:33:07;95399.72;;;15.24;85.13
40946;BME280;55635;50.264;11.918;2023-04-29T09:35:48;95409.81;;;15.22;83.16
40946;BME280;55635;50.264;11.918;2023-04-29T09:38:31;95412.63;;;15.27;83.56
40946;BME280;55635;50.264;11.918;2023-04-29T09:41:12;95411.94;;;15.13;84.72
40946;BME280;55635;50.264;11.918;2023-04-29T09:44:06;95409.19;;;15.20;84.17
40946;BME280;55635;50.264;11.918;2023-04-29T09:47:04;95414.81;;;15.12;83.75
40946;BME280;55635;50.264;11.918;2023-04-29T09:49:45;95425.84;;;15.22;85.35
40946;BME280;55635;50.264;11.918;2023-04-29T09:52:39;95435.31;;;15.18;85.34
40946;BME280;55635;50.264;11.918;2023-04-29T09:55:21;95436.06;;;15.25;86.80
40946;BME280;55635;50.264;11.918;2023-04-29T09:58:02;95439.13;;;15.04;85.17
40946;BME280;55635;50.264;11.918;2023-04-29T10:00:43;95442.88;;;15.21;85.20
40946;BME280;55635;50.264;11.918;2023-04-29T10:03:34;95445.41;;;15.16;84.61
40946;BME280;55635;50.264;11.918;2023-04-29T10:06:16;95440.38;;;15.01;84.76
40946;BME280;55635;50.264;11.918;2023-04-29T10:08:59;95433.16;;;15.02;84.67
40946;BME280;55635;50.264;11.918;2023-04-29T10:11:44;95435.78;;;15.33;84.03
40946;BME280;55635;50.264;11.918;2023-04-29T10:14:26;95433.53;;;15.79;83.62
40946;BME280;55635;50.264;11.918;2023-04-29T10:20:22;95427.22;;;15.92;82.03
40946;BME280;55635;50.264;11.918;2023-04-29T10:23:06;95432.72;;;15.79;80.40
40946;BME280;55635;50.264;11.918;2023-04-29T10:25:50;95438.31;;;15.96;80.85
40946;BME280;55635;50.264;11.918;2023-04-29T10:28:32;95443.59;;;16.02;80.05
40946;BME280;55635;50.264;11.918;2023-04-29T10:31:16;95440.66;;;15.86;78.18
40946;BME280;55635;50.264;11.918;2023-04-29T10:33:58;95451.28;;;15.74;79.13
40946;BME280;55635;50.264;11.918;2023-04-29T10:36:40;95445.88;;;15.81;79.01
40946;BME280;55635;50.264;11.918;2023-04-29T10:42:46;95451.47;;;15.54;80.04
40946;BME280;55635;50.264;11.918;2023-04-29T10:45:31;95445.59;;;15.14;79.00
40946;BME280;55635;50.264;11.918;2023-04-29T10:48:15;95452.97;;;15.19;80.16
40946;BME280;55635;50.264;11.918;2023-04-29T10:50:59;95448.72;;;15.36;80.29
40946;BME280;55635;50.264;11.918;2023-04-29T10:54:01;95437.06;;;15.55;80.29
40946;BME280;55635;50.264;11.918;2023-04-29T10:56:52;95449.88;;;15.47;79.94
40946;BME280;55635;50.264;11.918;2023-04-29T11:02:16;95442.59;;;15.29;81.04
40946;BME280;55635;50.264;11.918;2023-04-29T11:05:07;95452.66;;;15.34;81.42
40946;BME280;55635;50.264;11.918;2023-04-29T11:08:12;95463.09;;;15.35;80.76
40946;BME280;55635;50.264;11.918;2023-04-29T11:11:00;95459.63;;;15.10;81.25
40946;BME280;55635;50.264;11.918;2023-04-29T11:13:45;95447.94;;;15.29;81.75
40946;BME280;55635;50.264;11.918;2023-04-29T11:16:27;95459.91;;;14.95;79.61
40946;BME280;55635;50.264;11.918;2023-04-29T11:19:08;95466.97;;;15.14;80.46
40946;BME280;55635;50.264;11.918;2023-04-29T11:25:05;95468.31;;;14.99;80.31
40946;BME280;55635;50.264;11.918;2023-04-29T11:27:47;95470.03;;;15.18;80.64
40946;BME280;55635;50.264;11.918;2023-04-29T11:30:29;95463.78;;;15.31;80.57
40946;BME280;55635;50.264;11.918;2023-04-29T11:33:11;95467.06;;;15.57;79.17
40946;BME280;55635;50.264;11.918;2023-04-29T11:35:54;95471.34;;;16.01;78.59
40946;BME280;55635;50.264;11.918;2023-04-29T11:38:39;95471.94;;;16.40;76.94
40946;BME280;55635;50.264;11.918;2023-04-29T11:41:23;95465.34;;;16.60;75.56
40946;BME280;55635;50.264;11.918;2023-04-29T11:44:04;95471.59;;;17.25;75.36
40946;BME280;55635;50.264;11.918;2023-04-29T11:46:47;95472.59;;;17.54;74.12
40946;BME280;55635;50.264;11.918;2023-04-29T11:49:35;95472.72;;;17.59;72.16
40946;BME280;55635;50.264;11.918;2023-04-29T11:52:17;95476.28;;;17.41;71.86
40946;BME280;55635;50.264;11.918;2023-04-29T11:54:58;95479.25;;;17.10;71.30
40946;BME280;55635;50.264;11.918;2023-04-29T11:57:40;95477.50;;;17.16;72.97
40946;BME280;55635;50.264;11.918;2023-04-29T12:00:21;95489.09;;;16.68;72.83
40946;BME280;55635;50.264;11.918;2023-04-29T12:03:18;95490.47;;;16.89;73.17
40946;BME280;55635;50.264;11.918;2023-04-29T12:06:01;95498.03;;;16.62;72.59
40946;BME280;55635;50.264;11.918;2023-04-29T12:08:46;95502.06;;;16.35;72.67
40946;BME280;55635;50.264;11.918;2023-04-29T12:11:27;95504.72;;;15.99;71.00
40946;BME280;55635;50.264;11.918;2023-04-29T12:14:12;95502.53;;;15.89;72.50
40946;BME280;55635;50.264;11.918;2023-04-29T12:16:54;95490.59;;;15.92;72.12
40946;BME280;55635;50.264;11.918;2023-04-29T12:19:35;95503.28;;;15.96;71.37
40946;BME280;55635;50.264;11.918;2023-04-29T12:22:19;95494.00;;;15.81;72.29
40946;BME280;55635;50.264;11.918;2023-04-29T12:25:03;95502.66;;;15.76;72.65
40946;BME280;55635;50.264;11.918;2023-04-29T12:27:44;95509.59;;;15.84;72.35
40946;BME280;55635;50.264;11.918;2023-04-29T12:30:25;95519.88;;;15.62;72.47
40946;BME280;55635;50.264;11.918;2023-04-29T12:33:14;95513.75;;;15.79;73.40
40946;BME280;55635;50.264;11.918;2023-04-29T12:35:57;95510.34;;;15.66;71.73
40946;BME280;55635;50.264;11.918;2023-04-29T12:38:38;95512.44;;;15.64;72.50
40946;BME280;55635;50.264;11.918;2023-04-29T12:41:44;95514.06;;;15.90;72.87
40946;BME280;55635;50.264;11.918;2023-04-29T12:44:35;95507.06;;;15.89;71.59
40946;BME280;55635;50.264;11.918;2023-04-29T12:47:20;95514.75;;;16.03;71.83
40946;BME280;55635;50.264;11.918;2023-04-29T12:50:01;95502.69;;;15.94;71.61
40946;BME280;55635;50.264;11.918;2023-04-29T12:52:43;95510.50;;;15.96;71.86
40946;BME280;55635;50.264;11.918;2023-04-29T12:55:24;95519.09;;;15.79;71.60
40946;BME280;55635;50.264;11.918;2023-04-29T12:58:10;95513.03;;;16.09;71.30
40946;BME280;55635;50.264;11.918;2023-04-29T13:00:52;95512.06;;;16.03;71.61
40946;BME280;55635;50.264;11.918;2023-04-29T13:03:32;95513.94;;;16.39;72.48
40946;BME280;55635;50.264;11.918;2023-04-29T13:06:15;95502.13;;;16.10;71.66
40946;BME280;55635;50.264;11.918;2023-04-29T13:08:58;95504.13;;;16.15;70.74
40946;BME280;55635;50.264;11.918;2023-04-29T13:11:39;95516.91;;;16.31;71.38
40946;BME280;55635;50.264;11.918;2023-04-29T13:14:20;95523.47;;;16.35;70.62
40946;BME280;55635;50.264;11.918;2023-04-29T13:17:01;95525.94;;;15.69;68.57
40946;BME280;55635;50.264;11.918;2023-04-29T13:19:46;95528.81;;;15.49;67.90
40946;BME280;55635;50.264;11.918;2023-04-29T13:22:27;95537.66;;;15.43;68.04
40946;BME280;55635;50.264;11.918;2023-04-29T13:25:12;95545.91;;;15.10;67.89
40946;BME280;55635;50.264;11.918;2023-04-29T13:27:53;95546.25;;;15.14;70.55
40946;BME280;55635;50.264;11.918;2023-04-29T13:30:34;95542.47;;;14.97;68.82
40946;BME280;55635;50.264;11.918;2023-04-29T13:33:18;95535.69;;;15.01;69.03
40946;BME280;55635;50.264;11.918;2023-04-29T13:35:59;95539.94;;;15.08;70.17
40946;BME280;55635;50.264;11.918;2023-04-29T13:38:40;95538.91;;;15.09;70.54
40946;BME280;55635;50.264;11.918;2023-04-29T13:41:21;95534.00;;;15.06;70.09
40946;BME280;55635;50.264;11.918;2023-04-29T13:44:02;95539.91;;;15.15;69.94
40946;BME280;55635;50.264;11.918;2023-04-29T13:46:43;95540.56;;;15.10;70.19
40946;BME280;55635;50.264;11.918;2023-04-29T13:49:26;95521.72;;;15.30;71.27
40946;BME280;55635;50.264;11.918;2023-04-29T13:52:07;95533.09;;;15.19;69.92
40946;BME280;55635;50.264;11.918;2023-04-29T13:54:48;95545.16;;;15.28;69.92
40946;BME280;55635;50.264;11.918;2023-04-29T13:57:28;95549.75;;;15.52;71.16
40946;BME280;55635;50.264;11.918;2023-04-29T14:00:15;95547.22;;;15.57;69.65
40946;BME280;55635;50.264;11.918;2023-04-29T14:02:56;95545.78;;;15.61;69.72
40946;BME280;55635;50.264;11.918;2023-04-29T14:05:37;95547.63;;;15.86;69.99
40946;BME280;55635;50.264;11.918;2023-04-29T14:08:18;95542.31;;;16.04;69.09
40946;BME280;55635;50.264;11.918;2023-04-29T14:10:59;95529.00;;;15.97;69.80
40946;BME280;55635;50.264;11.918;2023-04-29T14:13:40;95540.22;;;16.06;67.65
40946;BME280;55635;50.264;11.918;2023-04-29T14:16:22;95543.28;;;16.09;67.75
40946;BME280;55635;50.264;11.918;2023-04-29T14:19:03;95544.19;;;16.21;67.80
40946;BME280;55635;50.264;11.918;2023-04-29T14:21:46;95549.97;;;16.18;67.98
40946;BME280;55635;50.264;11.918;2023-04-29T14:24:27;95551.03;;;16.17;68.42
40946;BME280;55635;50.264;11.918;2023-04-29T14:27:33;95554.56;;;15.68;68.06
40946;BME280;55635;50.264;11.918;2023-04-29T14:30:16;95561.22;;;15.59;69.23
40946;BME280;55635;50.264;11.918;2023-04-29T14:32:58;95566.22;;;15.43;70.08
40946;BME280;55635;50.264;11.918;2023-04-29T14:35:39;95568.34;;;15.34;71.03
40946;BME280;55635;50.264;11.918;2023-04-29T14:38:20;95573.03;;;15.07;72.69
40946;BME280;55635;50.264;11.918;2023-04-29T14:41:01;95580.56;;;14.79;73.61
40946;BME280;55635;50.264;11.918;2023-04-29T14:43:42;95580.31;;;14.87;73.69